Thunder radar more information blitzortung!


avis per Pluja more information rain snow radar


Visita la nostra xarxa de llocs de meteo:

Template documentation
and downloads

And another site



Rain From: 18-10-2018 10:00 Until: 16:59 warning for: Rain Level: Yellow info button

Pagina Historial Weather Underground text

Diari Resum January 19, 2016 Unitats:  Mètric    Imperial   Tant
« Previous Dia
SegĂźent Dia »
Diari Setmana Mensual Anual Personalitzada
  Maxima: Minima: Media:
Temperatura: -17.8 °C -14.1 °C -12.5 °C
Punt de rosada: -17.8 °C -17.6 °C -16.9 °C
Humitat: Humidity % 51 % 57 %
Wind Speed: 0 km/h 0 km/h 8.4 km/h
RĂ fegues de vent: 0 km/h - -
Vent:- - South
Pression baro: 0 hPa 34395 hPa -
Precipitacions: 0 mm    
Historical Graphs
 
 
Dades de taula per January 19, 2016
Temps Temperatura Punt de rosada Pression baro Vent Wind Speed RĂ fegues de vent Humitat Rainfall Rate (Hourly)
-17.8 °C -17.8 °C 0 hPa Calm     Humidity % 0 mm
11:05 -13.8 °C -17.5 °C 34496.6 hPa North 2.6 km/h 7.7 km/h 63 % 0 mm
11:10 -13.4 °C -17.3 °C 34496.6 hPa NE 9 km/h 9 km/h 61 % 0 mm
11:15 -13.4 °C -17.3 °C 34496.6 hPa NNE 5.1 km/h 15.6 km/h 61 % 0 mm
11:20 -13.3 °C -17.2 °C 34496.6 hPa NE 12.9 km/h 15.6 km/h 61 % 0 mm
11:25 -13.3 °C -17.2 °C 34496.6 hPa NE 5.1 km/h 15.6 km/h 61 % 0 mm
11:30 -13.3 °C -17.2 °C 34496.6 hPa NE 12.9 km/h 15.6 km/h 61 % 0 mm
11:35 -13.3 °C -17.2 °C 34496.6 hPa NE 5.1 km/h 15.6 km/h 61 % 0 mm
11:40 -13.3 °C -17.2 °C 34496.6 hPa NE 2.6 km/h 7.7 km/h 61 % 0 mm
11:45 -13.3 °C -17.2 °C 34496.6 hPa ENE 6 km/h 6.8 km/h 61 % 0 mm
11:50 -13.3 °C -17.2 °C 34496.6 hPa ENE 6.8 km/h   61 % 0 mm
11:55 -12.9 °C -17.2 °C 34496.6 hPa NNE 17.9 km/h 17.9 km/h 59 % 0 mm
12:00 -12.9 °C -17.2 °C 34496.6 hPa NNE 15 km/h 15 km/h 59 % 0 mm
12:05 -12.9 °C -17.2 °C 34496.6 hPa ENE 15 km/h 15 km/h 59 % 0 mm
12:10 -13 °C -17.3 °C 34496.6 hPa West 9 km/h 9 km/h 58 % 0 mm
12:15 -12.8 °C -17.2 °C 34496.6 hPa NNE 9 km/h 9 km/h 58 % 0 mm
12:20 -12.7 °C -17.2 °C 34496.6 hPa NNE 11.9 km/h 11.9 km/h 57 % 0 mm
12:25 -12.7 °C -17.2 °C 34496.6 hPa NNE 6 km/h 6 km/h 57 % 0 mm
12:30 -12.5 °C -17 °C 34496.6 hPa NNE 6 km/h 6 km/h 57 % 0 mm
12:35 -12.4 °C -16.9 °C 34496.6 hPa NE 9 km/h 9 km/h 57 % 0 mm
12:40 -12.4 °C -16.9 °C 34496.6 hPa NNE 15 km/h 15 km/h 57 % 0 mm
12:45 -12.6 °C -17.2 °C 34496.6 hPa ENE 15.6 km/h 15.6 km/h 56 % 0 mm
12:50 -12.6 °C -17.2 °C 34496.6 hPa ENE 15 km/h 15 km/h 56 % 0 mm
12:55 -12.8 °C -17.4 °C 34462.7 hPa NNE 11.9 km/h 11.9 km/h 56 % 0 mm
13:00 -12.8 °C -17.4 °C 34462.7 hPa NE 11.9 km/h 11.9 km/h 56 % 0 mm
13:05 -12.8 °C -17.4 °C 34462.7 hPa NNE 6.3 km/h 6.8 km/h 56 % 0 mm
13:10 -12.8 °C -17.4 °C 34462.7 hPa East 11.6 km/h 11.6 km/h 56 % 0 mm
13:15 -12.8 °C -17.4 °C 34462.7 hPa NW 6.3 km/h 6.3 km/h 56 % 0 mm
13:20 -12.8 °C -17.4 °C 34462.7 hPa East 6 km/h 6 km/h 56 % 0 mm
13:25 -12.8 °C -17.4 °C 34462.7 hPa ESE 23.8 km/h 23.8 km/h 56 % 0 mm
13:30 -12.8 °C -17.4 °C 34462.7 hPa NE 11.1 km/h 11.1 km/h 56 % 0 mm
13:35 -12.8 °C -17.4 °C 34462.7 hPa East 11.9 km/h 11.9 km/h 56 % 0 mm
13:40 -12.8 °C -17.4 °C 34462.7 hPa ENE 9.3 km/h 9.3 km/h 56 % 0 mm
13:45 -12.1 °C -16.9 °C 34462.7 hPa East 15 km/h 15 km/h 55 % 0 mm
13:50 -12.2 °C -17 °C 34462.7 hPa ESE 15 km/h 15 km/h 55 % 0 mm
13:55 -12.2 °C -17 °C 34462.7 hPa NNE 9 km/h 9 km/h 55 % 0 mm
14:00 -12.1 °C -17.1 °C 34462.7 hPa SE 6.8 km/h 6.8 km/h 54 % 0 mm
14:05 -12.1 °C -17.1 °C 34462.7 hPa ENE 9 km/h 9 km/h 54 % 0 mm
14:10 -12.1 °C -17 °C 34428.8 hPa East 11.9 km/h 11.9 km/h 54 % 0 mm
14:15 -12 °C -16.9 °C 34428.8 hPa East 9 km/h 9 km/h 54 % 0 mm
14:20 -12 °C -16.9 °C 34428.8 hPa ENE 11.9 km/h 11.9 km/h 54 % 0 mm
14:25 -11.9 °C -16.8 °C 34462.7 hPa NNW 6 km/h 6 km/h 54 % 0 mm
14:30 -11.6 °C -16.6 °C 34462.7 hPa SW 11.9 km/h 11.9 km/h 54 % 0 mm
14:35 -11.6 °C -16.7 °C 34462.7 hPa SW 17.9 km/h 17.9 km/h 53 % 0 mm
14:40 -11.4 °C -16.6 °C 34462.7 hPa SSW 17.9 km/h 17.9 km/h 53 % 0 mm
14:45 -11.2 °C -16.4 °C 34462.7 hPa SW 11.9 km/h 11.9 km/h 53 % 0 mm
14:50 -11.3 °C -16.6 °C 34462.7 hPa WSW 17.9 km/h 17.9 km/h 52 % 0 mm
14:55 -11.3 °C -16.6 °C 34462.7 hPa SSW 9.8 km/h 9.8 km/h 52 % 0 mm
15:00 -11.2 °C -16.5 °C 34462.7 hPa SW 16.1 km/h 16.1 km/h 52 % 0 mm
15:05 -11.2 °C -16.7 °C 34462.7 hPa SW 11.9 km/h 11.9 km/h 51 % 0 mm
15:20 -10.8 °C -16.3 °C 34428.8 hPa SW 11.9 km/h 11.9 km/h 51 % 0 mm
15:25 -10.7 °C -16.2 °C 34428.8 hPa SW 6.8 km/h 6.8 km/h 51 % 0 mm
15:30 -10.7 °C -16.2 °C 34428.8 hPa SW 15 km/h 15 km/h 51 % 0 mm
15:35 -10.8 °C -16.3 °C 34428.8 hPa SSW 15 km/h 15 km/h 51 % 0 mm
15:40 -10.7 °C -16.2 °C 34395 hPa WSW 6 km/h 7.6 km/h 51 % 0 mm
15:45 -10.8 °C -16.3 °C 34395 hPa WSW 15 km/h 15 km/h 51 % 0 mm
15:50 -10.7 °C -16.2 °C 34395 hPa SSW 15 km/h 15 km/h 51 % 0 mm
15:55 -10.7 °C -16.2 °C 34428.8 hPa SW 11.9 km/h 11.9 km/h 51 % 0 mm
16:00 -10.8 °C -16.3 °C 34428.8 hPa WSW 11.9 km/h 11.9 km/h 51 % 0 mm
16:05 -10.8 °C -16.3 °C 34428.8 hPa WSW 6.3 km/h 6.3 km/h 51 % 0 mm
16:10 -10.8 °C -16.3 °C 34428.8 hPa SW 17.9 km/h 17.9 km/h 51 % 0 mm
16:15 -10.9 °C -16.3 °C 34428.8 hPa WSW 16.6 km/h 16.6 km/h 51 % 0 mm
16:20 -10.8 °C -16.3 °C 34428.8 hPa SW 11.9 km/h 11.9 km/h 51 % 0 mm
16:25 -10.9 °C -16.4 °C 34462.7 hPa WSW 16.6 km/h 16.6 km/h 51 % 0 mm
16:30 -11.1 °C -16.6 °C 34462.7 hPa SSW 23.8 km/h 23.8 km/h 51 % 0 mm
16:35 -11.1 °C -16.5 °C 34462.7 hPa SSW 11.9 km/h 11.9 km/h 51 % 0 mm
16:40 -11 °C -16.5 °C 34462.7 hPa WSW 7.6 km/h 7.6 km/h 51 % 0 mm
16:45 -10.8 °C -16.3 °C 34462.7 hPa SW 20.9 km/h 20.9 km/h 51 % 0 mm
16:50 -10.9 °C -16.3 °C 34462.7 hPa SW 15 km/h 15 km/h 51 % 0 mm
16:55 -10.9 °C -16.4 °C 34462.7 hPa SSW 15 km/h 15 km/h 51 % 0 mm
17:00 -11.1 °C -16.5 °C 34462.7 hPa SW 20.3 km/h 20.3 km/h 51 % 0 mm
17:05 -11.1 °C -16.6 °C 34462.7 hPa SW 15 km/h 15 km/h 51 % 0 mm
17:10 -11.3 °C -16.7 °C 34462.7 hPa SW 15 km/h 15 km/h 51 % 0 mm
17:15 -11.3 °C -16.6 °C 34462.7 hPa WSW 15 km/h 15 km/h 52 % 0 mm
17:20 -11.5 °C -16.8 °C 34462.7 hPa SW 17.9 km/h 17.9 km/h 52 % 0 mm
17:25 -11.6 °C -16.9 °C 34462.7 hPa WSW 15 km/h 15 km/h 52 % 0 mm
17:30 -11.7 °C -16.8 °C 34462.7 hPa WSW 11.9 km/h 11.9 km/h 53 % 0 mm
17:35 -11.8 °C -16.9 °C 34462.7 hPa SW 15 km/h 15 km/h 53 % 0 mm
17:40 -11.8 °C -16.9 °C 34462.7 hPa SW 16.6 km/h 16.6 km/h 53 % 0 mm
17:45 -11.9 °C -16.8 °C 34462.7 hPa SSW 9 km/h 9 km/h 54 % 0 mm
17:50 -12 °C -16.9 °C 34462.7 hPa WSW 6 km/h 6.8 km/h 54 % 0 mm
17:55 -12.1 °C -17 °C 34462.7 hPa WSW 3.1 km/h 4.2 km/h 54 % 0 mm
18:00 -12.1 °C -17.1 °C 34462.7 hPa WSW 6.3 km/h 6.3 km/h 54 % 0 mm
18:05 -12.2 °C -17.2 °C 34462.7 hPa WSW 6 km/h 6 km/h 54 % 0 mm
18:10 -12.3 °C -17.3 °C 34462.7 hPa WSW 3.1 km/h 3.7 km/h 54 % 0 mm
18:15 -12.4 °C -17.2 °C 34462.7 hPa Calm     55 % 0 mm
18:20 -12.5 °C -17.3 °C 34462.7 hPa Calm     55 % 0 mm
18:25 -12.6 °C -17.3 °C 34462.7 hPa WSW 3.1 km/h 3.1 km/h 55 % 0 mm
18:30 -12.6 °C -17.4 °C 34462.7 hPa SW 3.1 km/h   55 % 0 mm
18:35 -12.7 °C -17.5 °C 34462.7 hPa Calm     55 % 0 mm
18:40 -12.7 °C -17.5 °C 34462.7 hPa WSW 6 km/h 6 km/h 55 % 0 mm
18:45 -12.8 °C -17.6 °C 34462.7 hPa SW 6.8 km/h 6.8 km/h 55 % 0 mm
18:50 -13 °C -17.6 °C 34462.7 hPa WSW 9 km/h 9 km/h 56 % 0 mm
19:00 -12.9 °C -17.2 °C 34462.7 hPa SW 11.9 km/h 11.9 km/h 58 % 0 mm
19:05 -12.9 °C -17.3 °C 34462.7 hPa WSW 10.3 km/h 10.3 km/h 58 % 0 mm
19:10 -12.9 °C -17.2 °C 34462.7 hPa SW 9.3 km/h 9.3 km/h 59 % 0 mm
19:15 -13 °C -17.2 °C 34462.7 hPa SW 6.3 km/h 6.3 km/h 59 % 0 mm
19:20 -13 °C -17.1 °C 34462.7 hPa SW 6 km/h 6 km/h 60 % 0 mm
19:25 -13 °C -17.1 °C 34462.7 hPa SW 9 km/h 9 km/h 60 % 0 mm
19:30 -13.1 °C -17 °C 34462.7 hPa SW 6.3 km/h 6.3 km/h 61 % 0 mm
19:35 -13.1 °C -17 °C 34462.7 hPa SW 6 km/h 6 km/h 61 % 0 mm
19:40 -13.1 °C -17 °C 34462.7 hPa WSW 6.8 km/h 6.8 km/h 61 % 0 mm
19:45 -13.1 °C -17 °C 34462.7 hPa WSW 6 km/h 6 km/h 61 % 0 mm
19:51 -13.1 °C -17 °C 34462.7 hPa SW 6 km/h 6 km/h 61 % 0 mm
19:56 -13.1 °C -16.9 °C 34462.7 hPa SSW 9 km/h 9 km/h 62 % 0 mm
20:01 -13.1 °C -16.8 °C 34462.7 hPa SW 11.9 km/h 11.9 km/h 63 % 0 mm
20:06 -13.1 °C -16.8 °C 34462.7 hPa SSW 9 km/h 9 km/h 63 % 0 mm
20:11 -13.1 °C -16.8 °C 34462.7 hPa SSW 8 km/h 8 km/h 63 % 0 mm
20:16 -13.1 °C -16.7 °C 34462.7 hPa West 9 km/h 9 km/h 64 % 0 mm
20:21 -13.1 °C -16.6 °C 34462.7 hPa SSW 9 km/h 9 km/h 64 % 0 mm
20:26 -13.1 °C -16.7 °C 34462.7 hPa WSW 9 km/h 9 km/h 64 % 0 mm
20:31 -13.1 °C -16.7 °C 34462.7 hPa WSW 6 km/h 6 km/h 64 % 0 mm
20:36 -13.1 °C -16.7 °C 34462.7 hPa WSW 3.7 km/h 3.7 km/h 64 % 0 mm
20:41 -13.1 °C -16.6 °C 34462.7 hPa Calm     64 % 0 mm
20:46 -13.1 °C -16.6 °C 34462.7 hPa Calm     64 % 0 mm
20:51 -13.1 °C -16.6 °C 34462.7 hPa Calm     64 % 0 mm
21:01 -13.1 °C -16.6 °C 34462.7 hPa SW 3.1 km/h 3.7 km/h 64 % 0 mm
21:06 -13.1 °C -16.7 °C 34462.7 hPa WNW 2.3 km/h   64 % 0 mm
21:11 -13.1 °C -16.7 °C 34428.8 hPa Calm     64 % 0 mm
21:21 -13.2 °C -16.8 °C 34428.8 hPa NW 3.1 km/h   64 % 0 mm
21:26 -13.2 °C -16.8 °C 34428.8 hPa NE 2.3 km/h   64 % 0 mm
21:31 -13.2 °C -16.8 °C 34428.8 hPa WNW 6 km/h 6 km/h 64 % 0 mm
21:36 -13.3 °C -16.7 °C 34428.8 hPa Calm     65 % 0 mm
21:41 -13.3 °C -16.8 °C 34462.7 hPa NW 3.7 km/h   64 % 0 mm
21:46 -13.3 °C -16.7 °C 34462.7 hPa Calm     65 % 0 mm
21:51 -13.3 °C -16.8 °C 34462.7 hPa Calm     65 % 0 mm
21:56 -13.4 °C -16.8 °C 34462.7 hPa Calm     65 % 0 mm
22:01 -13.4 °C -16.9 °C 34462.7 hPa Calm     65 % 0 mm
22:06 -13.5 °C -16.9 °C 34462.7 hPa Calm     65 % 0 mm
22:11 -13.6 °C -17 °C 34462.7 hPa Calm     65 % 0 mm
22:16 -13.6 °C -17.1 °C 34462.7 hPa Calm     64 % 0 mm
22:21 -13.6 °C -17.2 °C 34462.7 hPa Calm     64 % 0 mm
22:26 -13.6 °C -17.1 °C 34462.7 hPa NE 3.1 km/h   65 % 0 mm
22:31 -13.8 °C -17.4 °C 34462.7 hPa Calm     64 % 0 mm
22:36 -13.9 °C -17.4 °C 34462.7 hPa SW 3.1 km/h 3.1 km/h 64 % 0 mm
22:41 -14 °C -17.4 °C 34496.6 hPa Calm     65 % 0 mm
22:46 -14 °C -17.4 °C 34496.6 hPa Calm     65 % 0 mm
22:51 -14.1 °C -17.4 °C 34496.6 hPa WNW 3.7 km/h   65 % 0 mm
22:56 -14.1 °C -17.4 °C 34462.7 hPa Calm     66 % 0 mm
23:01 -14.1 °C -17.4 °C 34462.7 hPa Calm     66 % 0 mm
23:06 -14.1 °C -17.4 °C 34462.7 hPa Calm     66 % 0 mm
23:11 -14.1 °C -17.4 °C 34496.6 hPa NW 3.1 km/h   66 % 0 mm
Meteo Sesrovires
Elogis d' Weather Underground - 1.25 mb

Guio original per  Jim McMurry - jmcmurry@mwt.net Adaptat per a la plantilla per  Wim van der Kuil - Leuven-Template.eu

Trobareu la nostra informacio del temps tambe a:

Weather Underground

AWEKAS